Time;durP1;ratioP1;P1;durP2;ratioP2;P2;SDS_P1;SDS_P2;PMS_P1;PMS_P2;Temp;Humidity;BMP_temperature;BMP_pressure;BME280_temperature;BME280_humidity;BME280_pressure;Samples;Min_cycle;Max_cycle;Signal;HPM_P1;HPM_P2
2023/02/28 00:01:53;;;;;;;;;;;;;;;17.73;31.24;96061.56;10468528;28;2147;-55
2023/02/28 00:07:03;;;;;;;;;;;;;;;17.71;31.33;96053.16;10460113;28;1953;-51
2023/02/28 00:12:09;;;;;;;;;;;;;;;17.72;31.33;96056.56;10473959;28;2004;-53
2023/02/28 00:17:10;;;;;;;;;;;;;;;17.73;31.26;96050.28;10478683;28;2050;-54
2023/02/28 00:22:11;;;;;;;;;;;;;;;17.73;31.28;96043.22;10461942;28;2056;-53
2023/02/28 00:27:11;;;;;;;;;;;;;;;17.73;31.17;96037.97;10469186;28;1967;-55
2023/02/28 00:32:12;;;;;;;;;;;;;;;17.73;31.08;96042.41;10466194;28;1955;-52
2023/02/28 00:37:13;;;;;;;;;;;;;;;17.72;31.20;96043.47;10465027;28;1964;-51
2023/02/28 00:42:14;;;;;;;;;;;;;;;17.71;31.12;96037.44;10475637;28;1978;-53
2023/02/28 00:47:14;;;;;;;;;;;;;;;17.71;31.12;96034.00;10467753;28;1975;-53
2023/02/28 00:52:14;;;;;;;;;;;;;;;17.71;31.03;96034.81;10466764;28;2036;-53
2023/02/28 00:57:15;;;;;;;;;;;;;;;17.73;30.99;96043.22;10465177;28;2139;-54
2023/02/28 01:02:16;;;;;;;;;;;;;;;17.72;30.96;96043.47;10474259;28;1981;-53
2023/02/28 01:07:17;;;;;;;;;;;;;;;17.72;30.99;96039.00;10469963;28;2040;-52
2023/02/28 01:12:18;;;;;;;;;;;;;;;17.72;30.89;96039.00;10463624;28;2046;-53
2023/02/28 01:17:18;;;;;;;;;;;;;;;17.72;30.87;96033.75;10453842;28;1963;-51
2023/02/28 01:22:21;;;;;;;;;;;;;;;17.71;30.81;96032.19;10452228;28;2202;-53
2023/02/28 01:27:21;;;;;;;;;;;;;;;17.71;30.85;96024.31;10451107;28;2155;-53
2023/02/28 01:32:22;;;;;;;;;;;;;;;17.69;30.90;96021.16;10472525;28;2011;-53
2023/02/28 01:37:23;;;;;;;;;;;;;;;17.71;30.84;96019.06;10467292;28;1992;-55
2023/02/28 01:42:24;;;;;;;;;;;;;;;17.67;30.82;96010.13;10467653;28;1944;-55
2023/02/28 01:47:45;;;;;;;;;;;;;;;17.68;30.89;96006.44;10460028;28;2056;-56
2023/02/28 01:52:46;;;;;;;;;;;;;;;17.68;30.74;96019.56;10457432;28;2019;-54
2023/02/28 01:57:48;;;;;;;;;;;;;;;17.68;30.79;96008.31;10471427;28;2015;-58
2023/02/28 02:02:49;;;;;;;;;;;;;;;17.67;30.79;96009.31;10467998;28;2027;-54
2023/02/28 02:07:52;;;;;;;;;;;;;;;17.67;30.69;96007.50;10462953;28;2019;-52
2023/02/28 02:13:11;;;;;;;;;;;;;;;17.68;30.66;96006.44;10481652;28;1974;-54
2023/02/28 02:18:31;;;;;;;;;;;;;;;17.67;30.61;96004.88;10461312;28;2063;-52
2023/02/28 02:23:48;;;;;;;;;;;;;;;17.66;30.64;96007.75;10473301;28;2031;-55
2023/02/28 02:29:07;;;;;;;;;;;;;;;17.68;30.52;96003.81;10451852;28;1989;-54
2023/02/28 02:34:07;;;;;;;;;;;;;;;17.68;30.74;96001.19;10464824;28;2051;-53
2023/02/28 02:39:13;;;;;;;;;;;;;;;17.68;30.55;96001.19;10466285;28;2103;-54
2023/02/28 02:44:17;;;;;;;;;;;;;;;17.67;30.68;95993.59;10455428;28;2032;-54
2023/02/28 02:49:36;;;;;;;;;;;;;;;17.66;30.62;95981.53;10460670;28;2127;-55
2023/02/28 02:54:37;;;;;;;;;;;;;;;17.66;30.61;95986.78;10460230;28;1971;-53
2023/02/28 02:59:38;;;;;;;;;;;;;;;17.66;30.62;95979.69;10474587;28;2068;-50
2023/02/28 03:04:40;;;;;;;;;;;;;;;17.64;30.71;95986.25;10461395;28;1943;-55
2023/02/28 03:09:41;;;;;;;;;;;;;;;17.65;30.53;95986.00;10449926;28;2063;-53
2023/02/28 03:14:43;;;;;;;;;;;;;;;17.63;30.65;95971.53;10467128;28;2051;-52
2023/02/28 03:19:56;;;;;;;;;;;;;;;17.63;30.52;95977.59;10465696;28;1980;-55
2023/02/28 03:25:00;;;;;;;;;;;;;;;17.64;30.56;95991.50;10463747;28;2022;-54
2023/02/28 03:30:12;;;;;;;;;;;;;;;17.64;30.47;95991.50;10450766;28;1971;-53
2023/02/28 03:35:32;;;;;;;;;;;;;;;17.63;30.47;95985.44;10460136;28;2011;-51
2023/02/28 03:40:33;;;;;;;;;;;;;;;17.61;30.46;95990.16;10466592;28;2026;-52
2023/02/28 03:45:35;;;;;;;;;;;;;;;17.64;30.47;95992.25;10469842;28;2083;-52
2023/02/28 03:50:47;;;;;;;;;;;;;;;17.63;30.46;95993.31;10448432;28;1956;-54
2023/02/28 03:55:52;;;;;;;;;;;;;;;17.63;30.48;95998.56;10474290;28;2052;-54
2023/02/28 04:00:59;;;;;;;;;;;;;;;17.62;30.46;95999.56;10467877;28;1951;-53
2023/02/28 04:05:59;;;;;;;;;;;;;;;17.61;30.41;95999.84;10449318;28;1976;-56
2023/02/28 04:11:13;;;;;;;;;;;;;;;17.61;30.48;95999.84;10469593;28;2050;-54
2023/02/28 04:16:13;;;;;;;;;;;;;;;17.60;30.56;96012.13;10464798;28;2113;-52
2023/02/28 04:21:14;;;;;;;;;;;;;;;17.60;30.53;96017.38;10443173;28;2080;-52
2023/02/28 04:26:15;;;;;;;;;;;;;;;17.60;30.41;96021.81;10466560;28;2010;-53
2023/02/28 04:31:15;;;;;;;;;;;;;;;17.60;30.45;96020.00;10469917;28;2202;-55
2023/02/28 04:36:25;;;;;;;;;;;;;;;17.62;30.42;96025.03;10467098;28;1992;-54
2023/02/28 04:41:25;;;;;;;;;;;;;;;17.60;30.45;96030.50;10469762;28;1951;-54
2023/02/28 04:46:27;;;;;;;;;;;;;;;17.62;30.38;96022.41;10460208;28;2098;-53
2023/02/28 04:51:27;;;;;;;;;;;;;;;17.60;30.36;96027.88;10482890;28;1931;-54
2023/02/28 04:56:29;;;;;;;;;;;;;;;17.60;30.36;96027.06;10464357;28;2086;-54
2023/02/28 05:01:32;;;;;;;;;;;;;;;17.60;30.21;96030.50;10469773;28;2052;-54
2023/02/28 05:06:32;;;;;;;;;;;;;;;17.59;30.33;96036.78;10451805;28;1960;-53
2023/02/28 05:11:37;;;;;;;;;;;;;;;17.62;30.32;96044.13;10466042;28;2039;-54
2023/02/28 05:16:37;;;;;;;;;;;;;;;17.66;30.43;96045.22;10468866;28;2036;-55
2023/02/28 05:21:38;;;;;;;;;;;;;;;17.71;30.28;96045.28;10467064;28;1928;-56
2023/02/28 05:26:39;;;;;;;;;;;;;;;17.76;30.27;96045.31;10467699;28;2071;-55
2023/02/28 05:31:40;;;;;;;;;;;;;;;17.79;30.10;96055.31;10471405;28;2172;-53
2023/02/28 05:36:41;;;;;;;;;;;;;;;17.82;30.33;96046.19;10469774;28;1908;-54
2023/02/28 05:41:42;;;;;;;;;;;;;;;17.83;30.26;96045.91;10481859;28;1565;-55
2023/02/28 05:46:43;;;;;;;;;;;;;;;17.84;30.20;96055.38;10472939;28;1906;-56
2023/02/28 05:51:43;;;;;;;;;;;;;;;17.85;30.32;96043.84;10474058;28;1941;-53
2023/02/28 05:56:45;;;;;;;;;;;;;;;17.87;30.09;96044.38;10457649;28;2013;-51
2023/02/28 06:01:47;;;;;;;;;;;;;;;17.85;30.25;96049.09;10463764;28;1935;-52
2023/02/28 06:06:50;;;;;;;;;;;;;;;17.85;30.17;96064.81;10460333;28;2004;-52
2023/02/28 06:11:50;;;;;;;;;;;;;;;17.84;30.35;96062.44;10471992;28;1944;-52
2023/02/28 06:16:52;;;;;;;;;;;;;;;17.85;30.33;96059.56;10469152;28;2011;-53
2023/02/28 06:21:52;;;;;;;;;;;;;;;17.86;30.41;96066.41;10466943;28;2032;-49
2023/02/28 06:26:53;;;;;;;;;;;;;;;17.91;30.37;96080.63;10470765;28;1975;-52
2023/02/28 06:31:54;;;;;;;;;;;;;;;17.92;30.28;96080.34;10470854;28;2099;-55
2023/02/28 06:36:54;;;;;;;;;;;;;;;17.97;30.35;96079.63;10469373;28;1999;-53
2023/02/28 06:41:56;;;;;;;;;;;;;;;18.01;30.32;96088.56;10473406;28;2069;-53
2023/02/28 06:47:05;;;;;;;;;;;;;;;18.05;30.32;96090.47;10470403;28;1928;-50
2023/02/28 06:52:06;;;;;;;;;;;;;;;18.09;30.24;96090.75;10472631;28;1959;-51
2023/02/28 06:57:16;;;;;;;;;;;;;;;18.13;30.25;96103.13;10471343;28;2063;-53
2023/02/28 07:02:16;;;;;;;;;;;;;;;18.16;30.33;96109.69;10473831;28;2112;-51
2023/02/28 07:07:16;;;;;;;;;;;;;;;18.21;30.28;96114.97;10459628;28;1964;-53
2023/02/28 07:12:17;;;;;;;;;;;;;;;18.23;30.23;96115.53;10478375;28;2031;-52
2023/02/28 07:17:17;;;;;;;;;;;;;;;18.24;30.28;96117.88;10475041;28;1913;-53
2023/02/28 07:22:17;;;;;;;;;;;;;;;18.27;30.46;96125.28;10471869;28;2086;-54
2023/02/28 07:27:25;;;;;;;;;;;;;;;18.29;30.37;96117.16;10473651;28;2114;-55
2023/02/28 07:32:26;;;;;;;;;;;;;;;18.32;30.49;96120.06;10472153;28;2011;-52
2023/02/28 07:37:26;;;;;;;;;;;;;;;18.33;30.68;96119.03;10467892;28;1952;-52
2023/02/28 07:42:26;;;;;;;;;;;;;;;18.34;30.63;96117.19;10473559;28;1983;-53
2023/02/28 07:47:28;;;;;;;;;;;;;;;18.37;30.59;96124.56;10482538;28;1986;-53
2023/02/28 07:52:29;;;;;;;;;;;;;;;18.35;30.70;96119.56;10470227;28;2036;-50
2023/02/28 07:57:30;;;;;;;;;;;;;;;18.37;30.61;96116.69;10475767;28;1995;-52
2023/02/28 08:02:31;;;;;;;;;;;;;;;18.38;30.59;96126.16;10469076;28;2002;-55
2023/02/28 08:07:33;;;;;;;;;;;;;;;18.39;30.65;96125.09;10477669;28;1969;-50
2023/02/28 08:12:33;;;;;;;;;;;;;;;18.36;30.75;96133.50;10480866;28;2018;-52
2023/02/28 08:17:34;;;;;;;;;;;;;;;18.34;30.76;96138.19;10462346;28;2093;-50
2023/02/28 08:22:34;;;;;;;;;;;;;;;18.30;30.64;96145.75;10470024;28;1981;-53
2023/02/28 08:27:35;;;;;;;;;;;;;;;18.26;30.64;96149.91;10472562;28;2063;-53
2023/02/28 08:32:35;;;;;;;;;;;;;;;18.21;30.60;96146.47;10474941;28;1986;-54
2023/02/28 08:37:35;;;;;;;;;;;;;;;18.16;30.56;96151.66;10465642;28;1984;-47
2023/02/28 08:42:35;;;;;;;;;;;;;;;18.11;30.44;96159.50;10471907;28;1904;-51
2023/02/28 08:47:36;;;;;;;;;;;;;;;18.06;30.44;96165.47;10464578;28;2099;-53
2023/02/28 08:52:38;;;;;;;;;;;;;;;18.01;30.33;96167.25;10470336;28;2035;-54
2023/02/28 08:57:38;;;;;;;;;;;;;;;17.95;30.26;96168.25;10468754;28;1959;-52
2023/02/28 09:02:39;;;;;;;;;;;;;;;17.91;30.17;96175.03;10471962;28;2007;-52
2023/02/28 09:07:39;;;;;;;;;;;;;;;17.84;30.20;96159.47;10467032;28;1965;-52
2023/02/28 09:12:39;;;;;;;;;;;;;;;17.79;30.10;96162.84;10465305;28;2012;-51
2023/02/28 09:17:39;;;;;;;;;;;;;;;17.77;30.22;96170.16;10467566;28;1968;-53
2023/02/28 09:22:40;;;;;;;;;;;;;;;17.74;30.39;96173.25;10469030;28;1976;-54
2023/02/28 09:27:41;;;;;;;;;;;;;;;17.73;30.53;96182.16;10469062;28;1943;-51
2023/02/28 09:32:42;;;;;;;;;;;;;;;17.77;30.35;96183.25;10463926;28;1990;-51
2023/02/28 09:37:42;;;;;;;;;;;;;;;17.83;30.41;96195.41;10460582;28;2067;-50
2023/02/28 09:42:42;;;;;;;;;;;;;;;17.91;30.23;96201.25;10473362;28;1945;-52
2023/02/28 09:47:44;;;;;;;;;;;;;;;17.96;30.24;96212.59;10452422;28;2085;-51
2023/02/28 09:52:44;;;;;;;;;;;;;;;18.00;30.25;96203.19;10453172;28;1917;-52
2023/02/28 09:57:44;;;;;;;;;;;;;;;18.05;30.31;96212.94;10475579;28;2098;-49
2023/02/28 10:03:03;;;;;;;;;;;;;;;18.09;30.37;96212.22;10467660;28;2083;-50
2023/02/28 10:08:09;;;;;;;;;;;;;;;18.13;30.32;96212.50;10466655;28;1960;-53
2023/02/28 10:13:35;;;;;;;;;;;;;;;18.18;30.34;96209.91;10473842;28;2105;-51
2023/02/28 10:18:43;;;;;;;;;;;;;;;18.21;30.30;96215.50;10446798;28;2068;-52
2023/02/28 10:23:44;;;;;;;;;;;;;;;18.23;30.28;96220.47;10438293;28;1937;-52
2023/02/28 10:28:45;;;;;;;;;;;;;;;18.27;30.34;96221.56;10460912;28;1959;-52
2023/02/28 10:33:45;;;;;;;;;;;;;;;18.27;30.37;96226.81;10471038;28;2241;-48
2023/02/28 10:38:46;;;;;;;;;;;;;;;18.31;30.32;96225.28;10453781;28;2191;-54
2023/02/28 10:43:46;;;;;;;;;;;;;;;18.35;30.81;96227.16;10476859;28;2192;-52
2023/02/28 10:49:00;;;;;;;;;;;;;;;18.41;31.10;96234.06;10472897;28;2060;-53
2023/02/28 10:54:00;;;;;;;;;;;;;;;18.43;31.44;96239.03;10471557;28;2124;-49
2023/02/28 10:59:04;;;;;;;;;;;;;;;18.46;31.82;96234.16;10456010;28;2136;-50
2023/02/28 11:04:24;;;;;;;;;;;;;;;18.50;31.87;96235.22;10470333;28;2085;-52
2023/02/28 11:09:28;;;;;;;;;;;;;;;18.52;32.35;96243.66;10464243;28;2147;-54
2023/02/28 11:14:29;;;;;;;;;;;;;;;18.56;32.38;96243.94;10449740;28;2032;-53
2023/02/28 11:19:33;;;;;;;;;;;;;;;18.56;32.89;96241.31;10473548;28;2028;-52
2023/02/28 11:24:39;;;;;;;;;;;;;;;18.59;33.05;96233.72;10482657;28;2020;-52
2023/02/28 11:29:42;;;;;;;;;;;;;;;18.60;32.96;96235.31;10468729;28;2177;-51
2023/02/28 11:34:42;;;;;;;;;;;;;;;18.63;33.02;96229.56;10460309;28;2278;-53
2023/02/28 11:39:43;;;;;;;;;;;;;;;18.67;33.13;96214.09;10473913;28;2099;-52
2023/02/28 11:45:02;;;;;;;;;;;;;;;18.68;33.25;96215.69;10479558;28;2148;-51
2023/02/28 11:50:18;;;;;;;;;;;;;;;18.71;33.16;96209.94;10469079;28;2012;-52
2023/02/28 11:55:24;;;;;;;;;;;;;;;18.71;33.34;96198.66;10474212;28;2179;-52
2023/02/28 12:00:37;;;;;;;;;;;;;;;18.74;33.19;96198.13;10471078;28;2282;-54
2023/02/28 12:05:43;;;;;;;;;;;;;;;18.73;33.16;96199.97;10463812;28;2088;-51
2023/02/28 12:10:51;;;;;;;;;;;;;;;18.74;33.23;96198.94;10471918;28;2283;-54
2023/02/28 12:16:08;;;;;;;;;;;;;;;18.75;33.21;96192.66;10457668;28;2072;-52
2023/02/28 12:21:20;;;;;;;;;;;;;;;18.75;33.07;96187.41;10472343;28;2200;-52
2023/02/28 12:26:34;;;;;;;;;;;;;;;18.76;33.51;96193.41;10469718;28;2157;-50
2023/02/28 12:31:35;;;;;;;;;;;;;;;18.76;33.54;96186.34;10462702;28;2047;-55
2023/02/28 12:36:36;;;;;;;;;;;;;;;18.79;33.54;96177.97;10487895;28;2100;-56
2023/02/28 12:41:39;;;;;;;;;;;;;;;18.83;33.43;96180.88;10471721;28;2042;-49
2023/02/28 12:46:44;;;;;;;;;;;;;;;18.84;33.63;96164.06;10477490;28;2094;-52
2023/02/28 12:51:44;;;;;;;;;;;;;;;18.86;33.30;96165.41;10483301;28;2279;-54
2023/02/28 12:57:00;;;;;;;;;;;;;;;18.91;33.13;96168.06;10465736;28;2097;-53
2023/02/28 13:02:20;;;;;;;;;;;;;;;18.95;33.13;96163.09;10480001;28;2087;-54
2023/02/28 13:07:29;;;;;;;;;;;;;;;18.99;33.23;96164.16;10469943;28;2112;-54
2023/02/28 13:12:29;;;;;;;;;;;;;;;19.03;33.15;96160.00;10466493;28;2156;-54
2023/02/28 13:17:31;;;;;;;;;;;;;;;19.09;33.05;96158.97;10473745;28;2001;-54
2023/02/28 13:22:40;;;;;;;;;;;;;;;19.13;32.94;96162.69;10467271;28;2034;-54
2023/02/28 13:27:42;;;;;;;;;;;;;;;19.13;32.99;96168.72;10450904;28;2190;-53
2023/02/28 13:32:42;;;;;;;;;;;;;;;19.14;32.79;96167.69;10451043;28;2022;-54
2023/02/28 13:37:43;;;;;;;;;;;;;;;19.14;32.78;96165.06;10474656;28;2038;-55
2023/02/28 13:42:44;;;;;;;;;;;;;;;19.16;32.86;96170.88;10470257;28;2285;-52
2023/02/28 13:47:48;;;;;;;;;;;;;;;19.16;32.93;96170.06;10461018;28;2105;-55
2023/02/28 13:52:51;;;;;;;;;;;;;;;19.14;32.71;96167.69;10450432;28;2183;-54
2023/02/28 13:58:09;;;;;;;;;;;;;;;19.14;32.53;96166.91;10467068;28;2235;-53
2023/02/28 14:03:28;;;;;;;;;;;;;;;19.15;32.40;96158.75;10467921;28;2043;-54
2023/02/28 14:08:28;;;;;;;;;;;;;;;19.17;32.44;96169.81;10471932;28;2047;-54
2023/02/28 14:13:46;;;;;;;;;;;;;;;19.17;32.41;96167.19;10476146;28;2035;-53
2023/02/28 14:18:50;;;;;;;;;;;;;;;19.17;32.20;96167.19;10446709;28;2090;-52
2023/02/28 14:24:10;;;;;;;;;;;;;;;19.17;32.15;96166.38;10467316;28;1998;-56
2023/02/28 14:29:31;;;;;;;;;;;;;;;19.15;32.22;96163.22;10465966;28;2093;-54
2023/02/28 14:34:36;;;;;;;;;;;;;;;19.14;32.04;96159.81;10473832;28;2297;-55
2023/02/28 14:39:36;;;;;;;;;;;;;;;19.14;31.95;96162.44;10447637;28;2338;-53
2023/02/28 14:44:37;;;;;;;;;;;;;;;19.15;31.86;96160.59;10449138;28;2171;-56
2023/02/28 14:49:42;;;;;;;;;;;;;;;19.14;31.94;96159.03;10463555;28;2265;-56
2023/02/28 14:54:42;;;;;;;;;;;;;;;19.14;31.87;96157.19;10467221;28;2540;-54
2023/02/28 14:59:43;;;;;;;;;;;;;;;19.12;31.86;96155.84;10426828;28;2043;-55
2023/02/28 15:04:44;;;;;;;;;;;;;;;19.13;31.93;96157.41;10466030;28;2024;-54
2023/02/28 15:09:44;;;;;;;;;;;;;;;19.14;31.87;96151.94;10456722;28;1914;-53
2023/02/28 15:14:45;;;;;;;;;;;;;;;19.14;32.03;96154.56;10479872;28;1882;-56
2023/02/28 15:19:48;;;;;;;;;;;;;;;19.16;32.09;96159.56;10475513;28;2119;-55
2023/02/28 15:24:50;;;;;;;;;;;;;;;19.18;32.34;96167.97;10462140;28;1952;-54
2023/02/28 15:29:53;;;;;;;;;;;;;;;19.21;32.10;96154.31;10467228;28;1906;-56
2023/02/28 15:34:54;;;;;;;;;;;;;;;19.22;32.25;96158.53;10485414;28;1714;-55
2023/02/28 15:39:54;;;;;;;;;;;;;;;19.22;32.12;96161.97;10493003;28;1988;-54
2023/02/28 15:44:54;;;;;;;;;;;;;;;19.24;32.28;96164.31;10464871;28;2132;-54
2023/02/28 15:49:56;;;;;;;;;;;;;;;19.26;32.13;96170.13;10491528;28;2015;-55
2023/02/28 15:54:57;;;;;;;;;;;;;;;19.25;32.09;96174.56;10471975;28;2051;-54
2023/02/28 15:59:59;;;;;;;;;;;;;;;19.27;32.07;96179.56;10458274;28;2045;-53
2023/02/28 16:05:06;;;;;;;;;;;;;;;19.25;32.10;96174.56;10451475;28;2034;-49
2023/02/28 16:10:07;;;;;;;;;;;;;;;19.23;32.10;96181.94;10471973;28;2012;-52
2023/02/28 16:15:17;;;;;;;;;;;;;;;19.22;31.93;96175.09;10469668;28;2008;-55
2023/02/28 16:20:28;;;;;;;;;;;;;;;19.23;31.78;96175.88;10470912;28;2028;-52
2023/02/28 16:25:39;;;;;;;;;;;;;;;19.18;31.97;96171.41;10454457;28;2011;-53
2023/02/28 16:30:46;;;;;;;;;;;;;;;19.18;31.94;96174.03;10455863;28;2075;-54
2023/02/28 16:35:46;;;;;;;;;;;;;;;19.18;31.84;96170.59;10479597;28;2135;-53
2023/02/28 16:40:46;;;;;;;;;;;;;;;19.18;31.72;96184.53;10470237;28;2087;-54
2023/02/28 16:45:47;;;;;;;;;;;;;;;19.19;31.77;96183.47;10474835;28;1994;-55
2023/02/28 16:50:47;;;;;;;;;;;;;;;19.18;31.61;96181.13;10466448;28;2107;-55
2023/02/28 16:55:50;;;;;;;;;;;;;;;19.17;31.67;96188.19;10475924;28;2091;-53
2023/02/28 17:00:52;;;;;;;;;;;;;;;19.17;31.47;96193.47;10467720;28;1944;-54
2023/02/28 17:05:53;;;;;;;;;;;;;;;19.17;31.52;96192.66;10461764;28;1963;-53
2023/02/28 17:10:53;;;;;;;;;;;;;;;19.19;31.50;96201.88;10468013;28;2015;-54
2023/02/28 17:15:54;;;;;;;;;;;;;;;19.19;31.41;96201.06;10467285;28;1937;-55
2023/02/28 17:20:58;;;;;;;;;;;;;;;19.21;31.42;96206.88;10468129;28;1968;-53
2023/02/28 17:25:59;;;;;;;;;;;;;;;19.18;31.40;96217.91;10486049;28;1909;-51
2023/02/28 17:31:01;;;;;;;;;;;;;;;19.16;31.35;96228.69;10474168;28;2080;-52
2023/02/28 17:36:03;;;;;;;;;;;;;;;19.17;31.29;96219.75;10475487;28;1933;-52
2023/02/28 17:41:08;;;;;;;;;;;;;;;19.17;31.23;96229.44;10456821;28;1953;-51
2023/02/28 17:46:20;;;;;;;;;;;;;;;19.16;31.36;96226.06;10454591;28;2030;-53
2023/02/28 17:51:21;;;;;;;;;;;;;;;19.16;31.23;96223.44;10453220;28;1973;-54
2023/02/28 17:56:23;;;;;;;;;;;;;;;19.16;31.20;96220.78;10470573;28;1924;-52
2023/02/28 18:01:26;;;;;;;;;;;;;;;19.16;31.08;96226.06;10469432;28;1924;-53
2023/02/28 18:06:30;;;;;;;;;;;;;;;19.16;31.19;96225.25;10472347;28;1988;-52
2023/02/28 18:11:41;;;;;;;;;;;;;;;19.16;30.99;96228.69;10477445;28;1928;-53
2023/02/28 18:16:42;;;;;;;;;;;;;;;19.16;31.04;96222.63;10476566;28;2056;-53
2023/02/28 18:21:51;;;;;;;;;;;;;;;19.16;31.02;96217.38;10478023;28;1940;-55
2023/02/28 18:26:52;;;;;;;;;;;;;;;19.16;31.06;96233.13;10471899;28;2025;-53
2023/02/28 18:31:53;;;;;;;;;;;;;;;19.16;31.05;96223.44;10469166;28;1983;-52
2023/02/28 18:36:55;;;;;;;;;;;;;;;19.18;31.53;96216.09;10469313;28;2051;-54
2023/02/28 18:41:56;;;;;;;;;;;;;;;19.19;31.92;96215.03;10436737;28;1898;-50
2023/02/28 18:46:57;;;;;;;;;;;;;;;19.22;32.20;96211.91;10450215;28;2035;-54
2023/02/28 18:51:57;;;;;;;;;;;;;;;19.26;32.47;96212.97;10466079;28;2002;-54
2023/02/28 18:56:58;;;;;;;;;;;;;;;19.29;32.32;96217.72;10462729;28;1951;-54
2023/02/28 19:01:59;;;;;;;;;;;;;;;19.30;32.10;96213.25;10468624;28;1933;-55
2023/02/28 19:07:00;;;;;;;;;;;;;;;19.31;31.96;96215.63;10471667;28;1989;-54
2023/02/28 19:12:00;;;;;;;;;;;;;;;19.32;32.18;96211.16;10472386;28;1994;-54
2023/02/28 19:17:00;;;;;;;;;;;;;;;19.32;32.15;96211.16;10484493;28;2078;-53
2023/02/28 19:22:02;;;;;;;;;;;;;;;19.30;32.09;96214.03;10475946;28;2033;-52
2023/02/28 19:27:03;;;;;;;;;;;;;;;19.30;31.85;96218.50;10454720;28;2050;-51
2023/02/28 19:32:03;;;;;;;;;;;;;;;19.27;32.01;96217.16;10469721;28;1946;-54
2023/02/28 19:37:04;;;;;;;;;;;;;;;19.25;31.90;96221.09;10460968;28;2022;-53
2023/02/28 19:42:04;;;;;;;;;;;;;;;19.26;31.84;96223.50;10471984;28;1913;-51
2023/02/28 19:47:05;;;;;;;;;;;;;;;19.24;31.92;96215.06;10465286;28;1973;-52
2023/02/28 19:52:06;;;;;;;;;;;;;;;19.24;31.75;96219.53;10473424;28;1916;-52
2023/02/28 19:57:07;;;;;;;;;;;;;;;19.27;31.93;96211.13;10469860;28;1948;-53
2023/02/28 20:02:14;;;;;;;;;;;;;;;19.25;31.94;96219.25;10467417;28;2016;-55
2023/02/28 20:07:14;;;;;;;;;;;;;;;19.27;32.03;96205.84;10471592;28;1971;-54
2023/02/28 20:12:16;;;;;;;;;;;;;;;19.29;32.19;96206.41;10465878;28;1962;-55
2023/02/28 20:17:17;;;;;;;;;;;;;;;19.29;32.35;96207.19;10479174;28;1976;-50
2023/02/28 20:22:18;;;;;;;;;;;;;;;19.28;32.79;96212.72;10473261;28;1939;-55
2023/02/28 20:27:19;;;;;;;;;;;;;;;19.27;32.88;96211.91;10475898;28;1980;-53
2023/02/28 20:32:20;;;;;;;;;;;;;;;19.27;32.94;96214.53;10449752;28;2079;-53
2023/02/28 20:37:21;;;;;;;;;;;;;;;19.25;33.18;96206.13;10471009;28;1963;-55
2023/02/28 20:42:21;;;;;;;;;;;;;;;19.23;33.01;96202.94;10474071;28;2004;-54
2023/02/28 20:47:22;;;;;;;;;;;;;;;19.21;33.45;96205.03;10450223;28;2064;-55
2023/02/28 20:52:22;;;;;;;;;;;;;;;19.16;33.56;96205.03;10450952;28;2113;-54
2023/02/28 20:57:24;;;;;;;;;;;;;;;19.14;33.52;96207.13;10461268;28;2154;-53
2023/02/28 21:02:25;;;;;;;;;;;;;;;19.10;33.77;96213.13;10464217;28;2139;-53
2023/02/28 21:07:29;;;;;;;;;;;;;;;19.07;33.91;96213.63;10456991;28;1963;-54
2023/02/28 21:12:29;;;;;;;;;;;;;;;19.01;34.06;96204.91;10469861;28;2084;-53
2023/02/28 21:17:30;;;;;;;;;;;;;;;18.98;34.21;96207.25;10477127;28;2003;-54
2023/02/28 21:22:31;;;;;;;;;;;;;;;18.92;34.11;96206.41;10466867;28;2069;-52
2023/02/28 21:27:33;;;;;;;;;;;;;;;18.89;34.07;96206.94;10475601;28;2035;-54
2023/02/28 21:32:34;;;;;;;;;;;;;;;18.86;34.09;96199.53;10472647;28;2014;-54
2023/02/28 21:37:35;;;;;;;;;;;;;;;18.80;34.08;96195.28;10467397;28;1899;-54
2023/02/28 21:42:36;;;;;;;;;;;;;;;18.78;33.98;96188.72;10479364;28;2005;-54
2023/02/28 21:47:36;;;;;;;;;;;;;;;18.71;33.98;96190.78;10472977;28;2090;-50
2023/02/28 21:52:37;;;;;;;;;;;;;;;18.66;33.90;96179.19;10467452;28;2030;-52
2023/02/28 21:57:37;;;;;;;;;;;;;;;18.64;33.94;96181.28;10469589;28;2111;-53
2023/02/28 22:02:38;;;;;;;;;;;;;;;18.59;34.03;96183.03;10463133;28;2012;-55
2023/02/28 22:07:40;;;;;;;;;;;;;;;18.56;33.90;96191.44;10469042;28;1952;-55
2023/02/28 22:12:41;;;;;;;;;;;;;;;18.54;33.71;96183.00;10472200;28;2064;-54
2023/02/28 22:17:47;;;;;;;;;;;;;;;18.48;33.80;96189.25;10469855;28;2055;-51
2023/02/28 22:22:48;;;;;;;;;;;;;;;18.46;33.80;96180.84;10454000;28;2107;-53
2023/02/28 22:27:48;;;;;;;;;;;;;;;18.43;33.75;96182.13;10470194;28;1980;-53
2023/02/28 22:32:49;;;;;;;;;;;;;;;18.38;33.86;96183.91;10478262;28;1987;-53
2023/02/28 22:37:49;;;;;;;;;;;;;;;18.35;33.91;96187.00;10463561;28;1999;-51
2023/02/28 22:42:49;;;;;;;;;;;;;;;18.32;33.95;96195.38;10476426;28;2019;-53
2023/02/28 22:47:50;;;;;;;;;;;;;;;18.29;33.96;96180.13;10478619;28;2043;-54
2023/02/28 22:52:58;;;;;;;;;;;;;;;18.26;33.85;96191.13;10481323;28;1919;-52
2023/02/28 22:57:58;;;;;;;;;;;;;;;18.22;33.91;96184.78;10479904;28;1951;-53
2023/02/28 23:02:58;;;;;;;;;;;;;;;18.20;33.91;96181.59;10482029;28;2043;-52
2023/02/28 23:07:59;;;;;;;;;;;;;;;18.17;33.86;96182.13;10483179;28;2022;-51
2023/02/28 23:13:00;;;;;;;;;;;;;;;18.15;33.81;96182.38;10482148;28;2006;-54
2023/02/28 23:18:00;;;;;;;;;;;;;;;18.14;33.86;96191.25;10488841;28;1944;-51
2023/02/28 23:23:04;;;;;;;;;;;;;;;18.10;33.82;96181.50;10478989;28;2097;-52
2023/02/28 23:28:05;;;;;;;;;;;;;;;18.07;33.84;96179.38;10480751;28;1978;-52
2023/02/28 23:33:06;;;;;;;;;;;;;;;18.04;33.78;96191.16;10476636;28;2117;-54
2023/02/28 23:38:07;;;;;;;;;;;;;;;18.02;33.84;96187.19;10480074;28;2035;-53
2023/02/28 23:43:08;;;;;;;;;;;;;;;17.99;33.87;96179.84;10479659;28;2102;-53
2023/02/28 23:48:09;;;;;;;;;;;;;;;17.97;33.72;96184.53;10480638;28;2008;-53
2023/02/28 23:53:09;;;;;;;;;;;;;;;17.92;33.86;96171.34;10476069;28;2030;-54
2023/02/28 23:58:11;;;;;;;;;;;;;;;17.91;33.83;96177.66;10467264;28;1976;-52
